createdAt,value
2019-03-23T00:05:36.388Z,17.12
2019-03-23T00:11:31.377Z,13.47
2019-03-23T00:17:26.402Z,16.13
2019-03-23T00:23:21.369Z,12.28
2019-03-23T00:29:16.366Z,17.16
2019-03-23T00:35:11.400Z,19.94
2019-03-23T00:41:06.374Z,14.99
2019-03-23T00:47:01.408Z,13.51
2019-03-23T00:52:56.415Z,13.7
2019-03-23T00:58:51.362Z,13.32
2019-03-23T01:04:46.394Z,16.87
2019-03-23T01:10:41.371Z,12.47
2019-03-23T01:16:36.380Z,13.01
2019-03-23T01:22:31.455Z,11.64
2019-03-23T01:28:26.362Z,14.34
2019-03-23T01:34:21.348Z,17.36
2019-03-23T01:40:16.359Z,21
2019-03-23T01:46:11.363Z,19.63
2019-03-23T01:52:06.399Z,19.08
2019-03-23T01:58:01.395Z,17.27
2019-03-23T02:03:56.392Z,17.12
2019-03-23T02:09:51.404Z,14.73
2019-03-23T02:15:46.371Z,13.55
2019-03-23T02:21:41.424Z,16.85
2019-03-23T02:27:36.369Z,17.47
2019-03-23T02:33:31.385Z,19.45
2019-03-23T02:39:26.413Z,15.81
2019-03-23T02:45:21.407Z,14.74
2019-03-23T02:51:16.402Z,15.98
2019-03-23T02:57:11.373Z,14.48
2019-03-23T03:03:06.443Z,12.77
2019-03-23T03:09:01.389Z,19.01
2019-03-23T03:14:56.344Z,30.52
2019-03-23T03:20:51.359Z,24.27
2019-03-23T03:26:46.345Z,15.93
2019-03-23T03:32:41.360Z,17.11
2019-03-23T03:38:36.404Z,12.58
2019-03-23T03:44:31.370Z,17.6
2019-03-23T03:50:26.394Z,22.89
2019-03-23T03:56:21.355Z,7.8
2019-03-23T04:02:16.390Z,9.15
2019-03-23T04:08:11.983Z,9.79
2019-03-23T04:14:06.371Z,10.1
2019-03-23T04:20:01.425Z,8.98
2019-03-23T04:25:56.399Z,9.37
2019-03-23T04:31:51.361Z,17.07
2019-03-23T04:37:46.398Z,13.21
2019-03-23T04:43:41.411Z,9.91
2019-03-23T04:49:36.412Z,11.89
2019-03-23T04:55:31.390Z,10.12
2019-03-23T05:01:26.380Z,11.12
2019-03-23T05:07:21.434Z,9.98
2019-03-23T05:13:16.374Z,9.76
2019-03-23T05:19:11.407Z,12.04
2019-03-23T05:25:06.401Z,9.03
2019-03-23T05:31:01.387Z,10.87
2019-03-23T05:36:56.409Z,13.06
2019-03-23T05:42:51.380Z,13.28
2019-03-23T05:48:46.372Z,14.21
2019-03-23T05:54:41.377Z,12.47
2019-03-23T06:00:36.416Z,11.87
2019-03-23T06:06:31.372Z,15.37
2019-03-23T06:12:26.396Z,17.91
2019-03-23T06:18:21.425Z,14.52
2019-03-23T06:24:16.420Z,12.64
2019-03-23T06:30:11.387Z,13.02
2019-03-23T06:36:06.387Z,14.11
2019-03-23T06:42:01.439Z,9.99
2019-03-23T06:47:56.408Z,14.6
2019-03-23T06:53:51.423Z,9.42
2019-03-23T06:59:46.381Z,22.45
2019-03-23T07:05:41.429Z,14.2
2019-03-23T07:11:36.383Z,14.29
2019-03-23T07:17:31.382Z,14.41
2019-03-23T07:23:26.430Z,16.57
2019-03-23T07:29:21.383Z,12.72
2019-03-23T07:35:16.416Z,26.97
2019-03-23T07:41:11.414Z,17.52
2019-03-23T07:47:06.397Z,17.76
2019-03-23T07:53:01.487Z,14.69
2019-03-23T07:58:56.401Z,10.56
2019-03-23T08:04:51.418Z,13.35
2019-03-23T08:10:46.401Z,14.18
2019-03-23T08:16:41.435Z,12.03
2019-03-23T08:22:36.400Z,10.28
2019-03-23T08:28:32.449Z,9.7
2019-03-23T08:34:26.390Z,7
2019-03-23T08:40:21.410Z,10.1
2019-03-23T08:46:16.414Z,7.33
2019-03-23T08:52:11.421Z,5.58
2019-03-23T08:58:06.419Z,10.1
2019-03-23T09:04:01.413Z,6.08
2019-03-23T09:09:59.240Z,7.98
2019-03-23T09:15:51.424Z,7.29
2019-03-23T09:21:46.471Z,10.37
2019-03-23T09:27:41.435Z,14.18
2019-03-23T09:33:36.423Z,14.46
2019-03-23T09:39:31.427Z,15.09
2019-03-23T09:45:26.415Z,6.12
2019-03-23T09:51:21.420Z,6.45
2019-03-23T09:57:16.426Z,5.71
2019-03-23T10:03:11.451Z,6.99
2019-03-23T10:09:06.482Z,7.22
2019-03-23T10:15:01.472Z,6.03
2019-03-23T10:20:56.434Z,11.32
2019-03-23T10:26:52.293Z,6.71
2019-03-23T10:32:46.442Z,7.2
2019-03-23T10:38:41.466Z,11.05
2019-03-23T10:44:36.437Z,9.62
2019-03-23T10:50:31.454Z,8.54
2019-03-23T10:56:26.451Z,9.92
2019-03-23T11:02:21.496Z,10.9
2019-03-23T11:08:16.480Z,12.05
2019-03-23T11:14:11.433Z,15.89
2019-03-23T11:20:06.445Z,15.45
2019-03-23T11:26:01.474Z,10.63
2019-03-23T11:31:56.461Z,10.88
2019-03-23T11:37:51.582Z,12.85
2019-03-23T11:43:46.489Z,7.58
2019-03-23T11:49:41.461Z,12.59
2019-03-23T11:55:36.473Z,10.45
2019-03-23T12:01:31.460Z,17.2
2019-03-23T12:07:26.491Z,9.95
2019-03-23T12:13:21.463Z,11.79
2019-03-23T12:19:16.473Z,10.14
2019-03-23T12:25:11.491Z,14.23
2019-03-23T12:31:06.499Z,11.52
2019-03-23T12:37:01.487Z,11.7
2019-03-23T12:42:56.474Z,10.96
2019-03-23T12:48:51.521Z,11.05
2019-03-23T12:54:46.511Z,9.81
2019-03-23T13:00:41.472Z,9.75
2019-03-23T13:06:36.476Z,11.29
2019-03-23T13:12:31.488Z,9.43
2019-03-23T13:18:27.201Z,15.41
2019-03-23T13:24:22.662Z,12.39
2019-03-23T13:30:16.576Z,12.67
2019-03-23T13:36:11.669Z,10.32
2019-03-23T13:42:06.569Z,12.76
2019-03-23T13:48:01.519Z,15.78
2019-03-23T13:53:56.529Z,12.21
2019-03-23T13:59:51.498Z,13.14
2019-03-23T14:05:46.501Z,13.67
2019-03-23T14:11:41.546Z,12.75
2019-03-23T14:17:36.525Z,14.97
2019-03-23T14:23:31.543Z,12.53
2019-03-23T14:29:26.538Z,11.76
2019-03-23T14:35:21.531Z,11.55
2019-03-23T14:41:16.508Z,12.17
2019-03-23T14:47:11.507Z,11.29
2019-03-23T14:53:06.577Z,12.18
2019-03-23T14:59:01.547Z,11.29
2019-03-23T15:04:56.546Z,10.8
2019-03-23T15:10:51.525Z,12.07
2019-03-23T15:16:46.535Z,13.93
2019-03-23T15:22:41.555Z,17.14
2019-03-23T15:28:36.579Z,15.26
2019-03-23T15:34:31.612Z,14.09
2019-03-23T15:40:26.607Z,16.83
2019-03-23T15:46:21.526Z,16.8
2019-03-23T15:52:16.531Z,18.73
2019-03-23T15:58:11.586Z,17.11
2019-03-23T16:04:06.554Z,15.57
2019-03-23T16:10:01.565Z,15.99
2019-03-23T16:15:56.570Z,15.61
2019-03-23T16:21:51.562Z,13.89
2019-03-23T16:27:46.560Z,12.65
2019-03-23T16:33:41.573Z,13
2019-03-23T16:39:36.589Z,12.05
2019-03-23T16:45:31.593Z,11.84
2019-03-23T16:51:26.623Z,12.11
2019-03-23T16:57:27.187Z,10.87
2019-03-23T17:03:16.566Z,9.79
2019-03-23T17:09:11.572Z,11.58
2019-03-23T17:15:06.650Z,13.28
2019-03-23T17:21:01.591Z,7.95
2019-03-23T17:26:56.576Z,11.32
2019-03-23T17:32:51.621Z,8.55
2019-03-23T17:38:46.601Z,9.92
2019-03-23T17:44:41.587Z,8.92
2019-03-23T17:50:36.567Z,13.13
2019-03-23T17:56:31.595Z,12.13
2019-03-23T18:02:26.616Z,11.5
2019-03-23T18:08:21.578Z,12.06
2019-03-23T18:14:16.628Z,12.5
2019-03-23T18:20:11.638Z,13.5
2019-03-23T18:26:06.577Z,11.98
2019-03-23T18:32:01.595Z,12.97
2019-03-23T18:37:56.577Z,15.81
2019-03-23T18:43:51.633Z,19.46
2019-03-23T18:49:46.641Z,18.09
2019-03-23T18:55:41.579Z,16.81
2019-03-23T19:01:36.611Z,13.44
2019-03-23T19:07:31.593Z,16.03
2019-03-23T19:13:33.824Z,12.97
2019-03-23T19:19:21.580Z,11.84
2019-03-23T19:25:18.473Z,14.66
2019-03-23T19:31:11.581Z,9.71
2019-03-23T19:37:06.612Z,11.93
2019-03-23T19:43:01.609Z,16.15
2019-03-23T19:48:56.647Z,12.68
2019-03-23T19:54:51.594Z,11.95
2019-03-23T20:00:46.579Z,12.21
2019-03-23T20:06:41.608Z,8.95
2019-03-23T20:12:36.682Z,11.4
2019-03-23T20:18:31.627Z,10.67
2019-03-23T20:24:26.682Z,9.86
2019-03-23T20:30:21.608Z,10.83
2019-03-23T20:36:16.667Z,9.7
2019-03-23T20:42:11.597Z,10.33
2019-03-23T20:48:06.587Z,21.85
2019-03-23T20:54:01.600Z,23.23
2019-03-23T20:59:56.672Z,16.04
2019-03-23T21:05:51.600Z,13.9
2019-03-23T21:11:46.612Z,13.13
2019-03-23T21:17:50.908Z,12.22
2019-03-23T21:23:36.598Z,12.59
2019-03-23T21:29:31.601Z,11.33
2019-03-23T21:35:26.589Z,10.7
2019-03-23T21:41:21.607Z,10.73
2019-03-23T21:47:16.630Z,10.24
2019-03-23T21:53:11.607Z,10.43
2019-03-23T21:59:06.675Z,9.98
2019-03-23T22:05:01.613Z,8.43
2019-03-23T22:10:56.629Z,10.06
2019-03-23T22:16:51.624Z,9.13
2019-03-23T22:22:46.636Z,7.46
2019-03-23T22:28:41.628Z,8.33
2019-03-23T22:34:36.698Z,10.66
2019-03-23T22:40:31.654Z,8.87
2019-03-23T22:46:26.674Z,9.1
2019-03-23T22:52:21.638Z,8.1
2019-03-23T22:58:16.631Z,5.03
2019-03-23T23:04:11.667Z,10.53
2019-03-23T23:10:06.700Z,4.72
2019-03-23T23:16:01.645Z,7.34
2019-03-23T23:21:56.662Z,6.65
2019-03-23T23:27:51.667Z,7.19
2019-03-23T23:33:46.690Z,7
2019-03-23T23:39:41.715Z,6.37
2019-03-23T23:45:36.638Z,3.75
2019-03-23T23:51:31.694Z,5.83
2019-03-23T23:57:26.691Z,5.39
